sensor_id;sensor_type;location;lat;lon;timestamp;temperature;humidity
19870;DHT22;10097;50.862;4.696;2023-02-04T00:00:48;10.90;99.90
19870;DHT22;10097;50.862;4.696;2023-02-04T00:03:14;10.90;99.90
19870;DHT22;10097;50.862;4.696;2023-02-04T00:05:40;10.90;99.90
19870;DHT22;10097;50.862;4.696;2023-02-04T00:08:06;11.00;99.90
19870;DHT22;10097;50.862;4.696;2023-02-04T00:10:32;10.90;99.90
19870;DHT22;10097;50.862;4.696;2023-02-04T00:12:58;11.00;99.90
19870;DHT22;10097;50.862;4.696;2023-02-04T00:15:23;11.00;99.90
19870;DHT22;10097;50.862;4.696;2023-02-04T00:17:49;10.90;99.90
19870;DHT22;10097;50.862;4.696;2023-02-04T00:20:15;10.90;99.90
19870;DHT22;10097;50.862;4.696;2023-02-04T00:22:41;11.00;99.90
19870;DHT22;10097;50.862;4.696;2023-02-04T00:25:08;10.80;99.90
19870;DHT22;10097;50.862;4.696;2023-02-04T00:27:33;10.80;99.90
19870;DHT22;10097;50.862;4.696;2023-02-04T00:29:59;10.80;99.90
19870;DHT22;10097;50.862;4.696;2023-02-04T00:32:24;10.80;99.90
19870;DHT22;10097;50.862;4.696;2023-02-04T00:34:50;10.80;99.90
19870;DHT22;10097;50.862;4.696;2023-02-04T00:37:18;10.80;99.90
19870;DHT22;10097;50.862;4.696;2023-02-04T00:39:43;10.90;99.90
19870;DHT22;10097;50.862;4.696;2023-02-04T00:42:09;10.80;99.90
19870;DHT22;10097;50.862;4.696;2023-02-04T00:44:35;10.80;99.90
19870;DHT22;10097;50.862;4.696;2023-02-04T00:47:02;10.70;99.90
19870;DHT22;10097;50.862;4.696;2023-02-04T00:49:27;10.80;99.90
19870;DHT22;10097;50.862;4.696;2023-02-04T00:51:53;10.80;99.90
19870;DHT22;10097;50.862;4.696;2023-02-04T00:54:19;10.70;99.90
19870;DHT22;10097;50.862;4.696;2023-02-04T00:56:44;10.80;99.90
19870;DHT22;10097;50.862;4.696;2023-02-04T00:59:10;10.70;99.90
19870;DHT22;10097;50.862;4.696;2023-02-04T01:01:36;10.70;99.90
19870;DHT22;10097;50.862;4.696;2023-02-04T01:04:02;10.70;99.90
19870;DHT22;10097;50.862;4.696;2023-02-04T01:06:27;10.70;99.90
19870;DHT22;10097;50.862;4.696;2023-02-04T01:08:53;10.70;99.90
19870;DHT22;10097;50.862;4.696;2023-02-04T01:11:19;10.60;99.90
19870;DHT22;10097;50.862;4.696;2023-02-04T01:13:44;10.70;99.90
19870;DHT22;10097;50.862;4.696;2023-02-04T01:16:10;10.70;99.90
19870;DHT22;10097;50.862;4.696;2023-02-04T01:18:36;10.70;99.90
19870;DHT22;10097;50.862;4.696;2023-02-04T01:21:02;10.80;99.90
19870;DHT22;10097;50.862;4.696;2023-02-04T01:23:28;10.80;99.90
19870;DHT22;10097;50.862;4.696;2023-02-04T01:25:53;10.60;99.90
19870;DHT22;10097;50.862;4.696;2023-02-04T01:28:19;10.60;99.90
19870;DHT22;10097;50.862;4.696;2023-02-04T01:30:45;10.60;99.90
19870;DHT22;10097;50.862;4.696;2023-02-04T01:33:10;10.60;99.90
19870;DHT22;10097;50.862;4.696;2023-02-04T01:35:36;10.60;99.90
19870;DHT22;10097;50.862;4.696;2023-02-04T01:38:01;10.70;99.90
19870;DHT22;10097;50.862;4.696;2023-02-04T01:40:27;10.60;99.90
19870;DHT22;10097;50.862;4.696;2023-02-04T01:42:53;10.60;99.90
19870;DHT22;10097;50.862;4.696;2023-02-04T01:45:19;10.60;99.90
19870;DHT22;10097;50.862;4.696;2023-02-04T01:47:45;10.70;99.90
19870;DHT22;10097;50.862;4.696;2023-02-04T01:50:13;10.70;99.90
19870;DHT22;10097;50.862;4.696;2023-02-04T01:52:40;10.60;99.90
19870;DHT22;10097;50.862;4.696;2023-02-04T01:55:16;10.60;99.90
19870;DHT22;10097;50.862;4.696;2023-02-04T01:57:42;10.70;99.90
19870;DHT22;10097;50.862;4.696;2023-02-04T02:00:15;10.50;99.90
19870;DHT22;10097;50.862;4.696;2023-02-04T02:02:48;10.40;99.90
19870;DHT22;10097;50.862;4.696;2023-02-04T02:05:21;10.20;99.90
19870;DHT22;10097;50.862;4.696;2023-02-04T02:07:48;10.00;99.90
19870;DHT22;10097;50.862;4.696;2023-02-04T02:10:17;10.00;99.90
19870;DHT22;10097;50.862;4.696;2023-02-04T02:12:43;9.80;99.90
19870;DHT22;10097;50.862;4.696;2023-02-04T02:15:11;9.80;99.90
19870;DHT22;10097;50.862;4.696;2023-02-04T02:17:38;9.80;99.90
19870;DHT22;10097;50.862;4.696;2023-02-04T02:20:06;9.90;99.90
19870;DHT22;10097;50.862;4.696;2023-02-04T02:25:32;10.00;99.90
19870;DHT22;10097;50.862;4.696;2023-02-04T02:27:58;10.10;99.90
19870;DHT22;10097;50.862;4.696;2023-02-04T02:30:25;10.00;99.90
19870;DHT22;10097;50.862;4.696;2023-02-04T02:32:53;9.90;99.90
19870;DHT22;10097;50.862;4.696;2023-02-04T02:35:19;9.80;99.90
19870;DHT22;10097;50.862;4.696;2023-02-04T02:37:45;9.80;99.90
19870;DHT22;10097;50.862;4.696;2023-02-04T02:40:11;9.70;99.90
19870;DHT22;10097;50.862;4.696;2023-02-04T02:42:37;9.80;99.90
19870;DHT22;10097;50.862;4.696;2023-02-04T02:45:17;9.80;99.90
19870;DHT22;10097;50.862;4.696;2023-02-04T02:47:44;9.90;99.90
19870;DHT22;10097;50.862;4.696;2023-02-04T02:50:14;9.90;99.90
19870;DHT22;10097;50.862;4.696;2023-02-04T02:52:41;10.00;99.90
19870;DHT22;10097;50.862;4.696;2023-02-04T02:55:13;10.00;99.90
19870;DHT22;10097;50.862;4.696;2023-02-04T02:57:39;10.10;99.90
19870;DHT22;10097;50.862;4.696;2023-02-04T03:00:16;10.00;99.90
19870;DHT22;10097;50.862;4.696;2023-02-04T03:02:43;10.10;99.90
19870;DHT22;10097;50.862;4.696;2023-02-04T03:05:09;10.10;99.90
19870;DHT22;10097;50.862;4.696;2023-02-04T03:07:36;10.00;99.90
19870;DHT22;10097;50.862;4.696;2023-02-04T03:10:02;10.10;99.90
19870;DHT22;10097;50.862;4.696;2023-02-04T03:12:29;10.10;99.90
19870;DHT22;10097;50.862;4.696;2023-02-04T03:14:54;10.10;99.90
19870;DHT22;10097;50.862;4.696;2023-02-04T03:17:20;10.10;99.90
19870;DHT22;10097;50.862;4.696;2023-02-04T03:19:47;10.10;99.90
19870;DHT22;10097;50.862;4.696;2023-02-04T03:22:13;10.10;99.90
19870;DHT22;10097;50.862;4.696;2023-02-04T03:24:39;10.20;99.90
19870;DHT22;10097;50.862;4.696;2023-02-04T03:27:05;10.20;99.90
19870;DHT22;10097;50.862;4.696;2023-02-04T03:29:31;10.20;99.90
19870;DHT22;10097;50.862;4.696;2023-02-04T03:31:58;10.30;99.90
19870;DHT22;10097;50.862;4.696;2023-02-04T03:34:24;10.30;99.90
19870;DHT22;10097;50.862;4.696;2023-02-04T03:36:50;10.40;99.90
19870;DHT22;10097;50.862;4.696;2023-02-04T03:39:16;10.40;99.90
19870;DHT22;10097;50.862;4.696;2023-02-04T03:41:41;10.40;99.90
19870;DHT22;10097;50.862;4.696;2023-02-04T03:44:07;10.30;99.90
19870;DHT22;10097;50.862;4.696;2023-02-04T03:46:33;10.30;99.90
19870;DHT22;10097;50.862;4.696;2023-02-04T03:48:58;10.30;99.90
19870;DHT22;10097;50.862;4.696;2023-02-04T03:51:24;10.30;99.90
19870;DHT22;10097;50.862;4.696;2023-02-04T03:53:50;10.30;99.90
19870;DHT22;10097;50.862;4.696;2023-02-04T03:56:15;10.40;99.90
19870;DHT22;10097;50.862;4.696;2023-02-04T03:58:41;10.40;99.90
19870;DHT22;10097;50.862;4.696;2023-02-04T04:01:07;10.40;99.90
19870;DHT22;10097;50.862;4.696;2023-02-04T04:03:32;10.40;99.90
19870;DHT22;10097;50.862;4.696;2023-02-04T04:05:58;10.40;99.90
19870;DHT22;10097;50.862;4.696;2023-02-04T04:08:24;10.40;99.90
19870;DHT22;10097;50.862;4.696;2023-02-04T04:10:50;10.40;99.90
19870;DHT22;10097;50.862;4.696;2023-02-04T04:13:15;10.40;99.90
19870;DHT22;10097;50.862;4.696;2023-02-04T04:15:41;10.40;99.90
19870;DHT22;10097;50.862;4.696;2023-02-04T04:18:07;10.40;99.90
19870;DHT22;10097;50.862;4.696;2023-02-04T04:20:32;10.40;99.90
19870;DHT22;10097;50.862;4.696;2023-02-04T04:22:58;10.40;99.90
19870;DHT22;10097;50.862;4.696;2023-02-04T04:25:24;10.30;99.90
19870;DHT22;10097;50.862;4.696;2023-02-04T04:27:49;10.30;99.90
19870;DHT22;10097;50.862;4.696;2023-02-04T04:30:15;10.30;99.90
19870;DHT22;10097;50.862;4.696;2023-02-04T04:32:41;10.40;99.90
19870;DHT22;10097;50.862;4.696;2023-02-04T04:35:06;10.40;99.90
19870;DHT22;10097;50.862;4.696;2023-02-04T04:37:32;10.40;99.90
19870;DHT22;10097;50.862;4.696;2023-02-04T04:39:59;10.40;99.90
19870;DHT22;10097;50.862;4.696;2023-02-04T04:42:26;10.40;99.90
19870;DHT22;10097;50.862;4.696;2023-02-04T04:44:51;10.50;99.90
19870;DHT22;10097;50.862;4.696;2023-02-04T04:47:17;10.40;99.90
19870;DHT22;10097;50.862;4.696;2023-02-04T04:49:42;10.40;99.90
19870;DHT22;10097;50.862;4.696;2023-02-04T04:52:08;10.40;99.90
19870;DHT22;10097;50.862;4.696;2023-02-04T04:54:35;10.30;99.90
19870;DHT22;10097;50.862;4.696;2023-02-04T04:57:01;10.30;99.90
19870;DHT22;10097;50.862;4.696;2023-02-04T04:59:26;10.30;99.90
19870;DHT22;10097;50.862;4.696;2023-02-04T05:01:52;10.20;99.90
19870;DHT22;10097;50.862;4.696;2023-02-04T05:04:18;10.20;99.90
19870;DHT22;10097;50.862;4.696;2023-02-04T05:06:43;10.30;99.90
19870;DHT22;10097;50.862;4.696;2023-02-04T05:09:09;10.30;99.90
19870;DHT22;10097;50.862;4.696;2023-02-04T05:11:35;10.40;99.90
19870;DHT22;10097;50.862;4.696;2023-02-04T05:14:01;10.40;99.90
19870;DHT22;10097;50.862;4.696;2023-02-04T05:16:26;10.40;99.90
19870;DHT22;10097;50.862;4.696;2023-02-04T05:18:52;10.40;99.90
19870;DHT22;10097;50.862;4.696;2023-02-04T05:21:18;10.40;99.90
19870;DHT22;10097;50.862;4.696;2023-02-04T05:23:43;10.30;99.90
19870;DHT22;10097;50.862;4.696;2023-02-04T05:26:09;10.40;99.90
19870;DHT22;10097;50.862;4.696;2023-02-04T05:28:35;10.30;99.90
19870;DHT22;10097;50.862;4.696;2023-02-04T05:31:00;10.30;99.90
19870;DHT22;10097;50.862;4.696;2023-02-04T05:33:26;10.40;99.90
19870;DHT22;10097;50.862;4.696;2023-02-04T05:35:51;10.40;99.90
19870;DHT22;10097;50.862;4.696;2023-02-04T05:38:17;10.40;99.90
19870;DHT22;10097;50.862;4.696;2023-02-04T05:40:43;10.50;99.90
19870;DHT22;10097;50.862;4.696;2023-02-04T05:43:08;10.40;99.90
19870;DHT22;10097;50.862;4.696;2023-02-04T05:45:34;10.40;99.90
19870;DHT22;10097;50.862;4.696;2023-02-04T05:48:00;10.40;99.90
19870;DHT22;10097;50.862;4.696;2023-02-04T05:50:25;10.40;99.90
19870;DHT22;10097;50.862;4.696;2023-02-04T05:52:51;10.40;99.90
19870;DHT22;10097;50.862;4.696;2023-02-04T05:55:17;10.40;99.90
19870;DHT22;10097;50.862;4.696;2023-02-04T05:57:42;10.40;99.90
19870;DHT22;10097;50.862;4.696;2023-02-04T06:00:09;10.30;99.90
19870;DHT22;10097;50.862;4.696;2023-02-04T06:02:35;10.30;99.90
19870;DHT22;10097;50.862;4.696;2023-02-04T06:05:01;10.20;99.90
19870;DHT22;10097;50.862;4.696;2023-02-04T06:07:27;10.30;99.90
19870;DHT22;10097;50.862;4.696;2023-02-04T06:09:52;10.30;99.90
19870;DHT22;10097;50.862;4.696;2023-02-04T06:12:18;10.30;99.90
19870;DHT22;10097;50.862;4.696;2023-02-04T06:14:43;10.30;99.90
19870;DHT22;10097;50.862;4.696;2023-02-04T06:17:09;10.40;99.90
19870;DHT22;10097;50.862;4.696;2023-02-04T06:19:35;10.40;99.90
19870;DHT22;10097;50.862;4.696;2023-02-04T06:22:00;10.40;99.90
19870;DHT22;10097;50.862;4.696;2023-02-04T06:24:26;10.30;99.90
19870;DHT22;10097;50.862;4.696;2023-02-04T06:26:51;10.30;99.90
19870;DHT22;10097;50.862;4.696;2023-02-04T06:29:17;10.30;99.90
19870;DHT22;10097;50.862;4.696;2023-02-04T06:31:43;10.30;99.90
19870;DHT22;10097;50.862;4.696;2023-02-04T06:34:09;10.40;99.90
19870;DHT22;10097;50.862;4.696;2023-02-04T06:36:34;10.40;99.90
19870;DHT22;10097;50.862;4.696;2023-02-04T06:39:00;10.40;99.90
19870;DHT22;10097;50.862;4.696;2023-02-04T06:41:26;10.40;99.90
19870;DHT22;10097;50.862;4.696;2023-02-04T06:43:51;10.40;99.90
19870;DHT22;10097;50.862;4.696;2023-02-04T06:46:17;10.40;99.90
19870;DHT22;10097;50.862;4.696;2023-02-04T06:48:42;10.30;99.90
19870;DHT22;10097;50.862;4.696;2023-02-04T06:51:08;10.30;99.90
19870;DHT22;10097;50.862;4.696;2023-02-04T06:53:34;10.20;99.90
19870;DHT22;10097;50.862;4.696;2023-02-04T06:55:59;10.20;99.90
19870;DHT22;10097;50.862;4.696;2023-02-04T06:58:25;10.30;99.90
19870;DHT22;10097;50.862;4.696;2023-02-04T07:00:50;10.30;99.90
19870;DHT22;10097;50.862;4.696;2023-02-04T07:03:16;10.40;99.90
19870;DHT22;10097;50.862;4.696;2023-02-04T07:05:42;10.40;99.90
19870;DHT22;10097;50.862;4.696;2023-02-04T07:08:07;10.50;99.90
19870;DHT22;10097;50.862;4.696;2023-02-04T07:10:33;10.50;99.90
19870;DHT22;10097;50.862;4.696;2023-02-04T07:12:58;10.50;99.90
19870;DHT22;10097;50.862;4.696;2023-02-04T07:15:24;10.50;99.90
19870;DHT22;10097;50.862;4.696;2023-02-04T07:17:50;10.50;99.90
19870;DHT22;10097;50.862;4.696;2023-02-04T07:20:16;10.60;99.90
19870;DHT22;10097;50.862;4.696;2023-02-04T07:22:41;10.60;99.90
19870;DHT22;10097;50.862;4.696;2023-02-04T07:25:08;10.60;99.90
19870;DHT22;10097;50.862;4.696;2023-02-04T07:27:34;10.60;99.90
19870;DHT22;10097;50.862;4.696;2023-02-04T07:30:00;10.60;99.90
19870;DHT22;10097;50.862;4.696;2023-02-04T07:32:26;10.60;99.90
19870;DHT22;10097;50.862;4.696;2023-02-04T07:34:57;10.60;99.90
19870;DHT22;10097;50.862;4.696;2023-02-04T07:37:22;10.60;99.90
19870;DHT22;10097;50.862;4.696;2023-02-04T07:39:48;10.50;99.90
19870;DHT22;10097;50.862;4.696;2023-02-04T07:42:13;10.40;99.90
19870;DHT22;10097;50.862;4.696;2023-02-04T07:44:39;10.40;99.90
19870;DHT22;10097;50.862;4.696;2023-02-04T07:47:05;10.50;99.90
19870;DHT22;10097;50.862;4.696;2023-02-04T07:49:30;10.40;99.90
19870;DHT22;10097;50.862;4.696;2023-02-04T07:51:56;10.40;99.90
19870;DHT22;10097;50.862;4.696;2023-02-04T07:54:22;10.40;99.90
19870;DHT22;10097;50.862;4.696;2023-02-04T07:56:48;10.50;99.90
19870;DHT22;10097;50.862;4.696;2023-02-04T07:59:29;10.40;99.90
19870;DHT22;10097;50.862;4.696;2023-02-04T08:01:54;10.30;99.90
19870;DHT22;10097;50.862;4.696;2023-02-04T08:04:20;10.30;99.90
19870;DHT22;10097;50.862;4.696;2023-02-04T08:06:45;10.40;99.90
19870;DHT22;10097;50.862;4.696;2023-02-04T08:09:11;10.30;99.90
19870;DHT22;10097;50.862;4.696;2023-02-04T08:11:37;10.40;99.90
19870;DHT22;10097;50.862;4.696;2023-02-04T08:14:02;10.40;99.90
19870;DHT22;10097;50.862;4.696;2023-02-04T08:16:31;10.50;99.90
19870;DHT22;10097;50.862;4.696;2023-02-04T08:18:56;10.50;99.90
19870;DHT22;10097;50.862;4.696;2023-02-04T08:21:22;10.50;99.90
19870;DHT22;10097;50.862;4.696;2023-02-04T08:23:48;10.60;99.90
19870;DHT22;10097;50.862;4.696;2023-02-04T08:26:13;10.60;99.90
19870;DHT22;10097;50.862;4.696;2023-02-04T08:28:39;10.70;99.90
19870;DHT22;10097;50.862;4.696;2023-02-04T08:31:05;10.80;99.90
19870;DHT22;10097;50.862;4.696;2023-02-04T08:33:31;10.80;99.90
19870;DHT22;10097;50.862;4.696;2023-02-04T08:35:57;10.80;99.90
19870;DHT22;10097;50.862;4.696;2023-02-04T08:38:22;10.80;99.90
19870;DHT22;10097;50.862;4.696;2023-02-04T08:40:48;10.80;99.90
19870;DHT22;10097;50.862;4.696;2023-02-04T08:43:14;10.80;99.90
19870;DHT22;10097;50.862;4.696;2023-02-04T08:45:39;10.90;99.90
19870;DHT22;10097;50.862;4.696;2023-02-04T08:48:05;11.00;99.90
19870;DHT22;10097;50.862;4.696;2023-02-04T08:50:32;11.00;99.90
19870;DHT22;10097;50.862;4.696;2023-02-04T08:52:57;11.10;99.90
19870;DHT22;10097;50.862;4.696;2023-02-04T08:55:23;11.10;99.90
19870;DHT22;10097;50.862;4.696;2023-02-04T08:57:49;11.20;99.90
19870;DHT22;10097;50.862;4.696;2023-02-04T09:00:14;11.10;99.90
19870;DHT22;10097;50.862;4.696;2023-02-04T09:02:40;11.00;99.90
19870;DHT22;10097;50.862;4.696;2023-02-04T09:05:06;11.10;99.90
19870;DHT22;10097;50.862;4.696;2023-02-04T09:07:32;11.10;99.90
19870;DHT22;10097;50.862;4.696;2023-02-04T09:09:57;11.10;99.90
19870;DHT22;10097;50.862;4.696;2023-02-04T09:12:23;11.20;99.90
19870;DHT22;10097;50.862;4.696;2023-02-04T09:14:49;11.10;99.90
19870;DHT22;10097;50.862;4.696;2023-02-04T09:17:14;11.10;99.90
19870;DHT22;10097;50.862;4.696;2023-02-04T09:19:40;11.10;99.90
19870;DHT22;10097;50.862;4.696;2023-02-04T09:22:06;11.20;99.90
19870;DHT22;10097;50.862;4.696;2023-02-04T09:24:31;11.20;99.90
19870;DHT22;10097;50.862;4.696;2023-02-04T09:26:57;11.20;99.90
19870;DHT22;10097;50.862;4.696;2023-02-04T09:29:23;11.30;99.90
19870;DHT22;10097;50.862;4.696;2023-02-04T09:31:48;11.20;99.90
19870;DHT22;10097;50.862;4.696;2023-02-04T09:34:14;11.10;99.90
19870;DHT22;10097;50.862;4.696;2023-02-04T09:36:39;11.20;99.90
19870;DHT22;10097;50.862;4.696;2023-02-04T09:39:06;11.30;99.90
19870;DHT22;10097;50.862;4.696;2023-02-04T09:41:33;11.40;99.90
19870;DHT22;10097;50.862;4.696;2023-02-04T09:43:59;11.40;99.90
19870;DHT22;10097;50.862;4.696;2023-02-04T09:46:26;11.50;99.90
19870;DHT22;10097;50.862;4.696;2023-02-04T09:48:56;11.50;99.90
19870;DHT22;10097;50.862;4.696;2023-02-04T09:51:25;11.50;99.90
19870;DHT22;10097;50.862;4.696;2023-02-04T09:53:53;11.60;99.90
19870;DHT22;10097;50.862;4.696;2023-02-04T09:56:20;11.60;99.90
19870;DHT22;10097;50.862;4.696;2023-02-04T09:58:46;11.60;99.90
19870;DHT22;10097;50.862;4.696;2023-02-04T10:01:15;11.60;99.90
19870;DHT22;10097;50.862;4.696;2023-02-04T10:03:42;11.70;99.90
19870;DHT22;10097;50.862;4.696;2023-02-04T10:06:16;11.70;99.90
19870;DHT22;10097;50.862;4.696;2023-02-04T10:08:43;11.70;99.90
19870;DHT22;10097;50.862;4.696;2023-02-04T10:11:10;11.70;99.90
19870;DHT22;10097;50.862;4.696;2023-02-04T10:13:44;11.70;99.90
19870;DHT22;10097;50.862;4.696;2023-02-04T10:16:25;11.70;99.90
19870;DHT22;10097;50.862;4.696;2023-02-04T10:19:06;11.80;99.90
19870;DHT22;10097;50.862;4.696;2023-02-04T10:21:34;11.80;99.90
19870;DHT22;10097;50.862;4.696;2023-02-04T10:24:03;12.00;99.90
19870;DHT22;10097;50.862;4.696;2023-02-04T10:26:31;12.00;99.90
19870;DHT22;10097;50.862;4.696;2023-02-04T10:28:59;12.00;99.90
19870;DHT22;10097;50.862;4.696;2023-02-04T10:34:02;11.80;99.90
19870;DHT22;10097;50.862;4.696;2023-02-04T10:36:28;11.80;99.90
19870;DHT22;10097;50.862;4.696;2023-02-04T10:39:08;11.90;99.90
19870;DHT22;10097;50.862;4.696;2023-02-04T10:41:36;12.00;99.90
19870;DHT22;10097;50.862;4.696;2023-02-04T10:44:09;12.00;99.90
19870;DHT22;10097;50.862;4.696;2023-02-04T10:46:36;12.00;99.90
19870;DHT22;10097;50.862;4.696;2023-02-04T10:49:16;11.90;99.90
19870;DHT22;10097;50.862;4.696;2023-02-04T10:51:42;12.00;99.90
19870;DHT22;10097;50.862;4.696;2023-02-04T10:54:11;12.00;99.90
19870;DHT22;10097;50.862;4.696;2023-02-04T10:59:26;12.00;99.90
19870;DHT22;10097;50.862;4.696;2023-02-04T11:01:55;12.10;99.90
19870;DHT22;10097;50.862;4.696;2023-02-04T11:04:22;12.10;99.90
19870;DHT22;10097;50.862;4.696;2023-02-04T11:06:47;12.10;99.90
19870;DHT22;10097;50.862;4.696;2023-02-04T11:09:14;12.10;99.90
19870;DHT22;10097;50.862;4.696;2023-02-04T11:11:48;12.10;99.90
19870;DHT22;10097;50.862;4.696;2023-02-04T11:14:27;12.00;99.90
19870;DHT22;10097;50.862;4.696;2023-02-04T11:16:54;11.80;99.90
19870;DHT22;10097;50.862;4.696;2023-02-04T11:19:38;11.80;99.90
19870;DHT22;10097;50.862;4.696;2023-02-04T11:22:35;12.00;99.90
19870;DHT22;10097;50.862;4.696;2023-02-04T11:25:02;11.90;99.90
19870;DHT22;10097;50.862;4.696;2023-02-04T11:27:38;12.00;99.90
19870;DHT22;10097;50.862;4.696;2023-02-04T11:30:19;12.00;99.90
19870;DHT22;10097;50.862;4.696;2023-02-04T11:33:00;12.10;99.90
19870;DHT22;10097;50.862;4.696;2023-02-04T11:35:27;12.10;99.90
19870;DHT22;10097;50.862;4.696;2023-02-04T11:37:54;12.10;99.90
19870;DHT22;10097;50.862;4.696;2023-02-04T11:40:30;12.10;99.90
19870;DHT22;10097;50.862;4.696;2023-02-04T11:43:12;12.00;99.90
19870;DHT22;10097;50.862;4.696;2023-02-04T11:45:39;12.00;99.90
19870;DHT22;10097;50.862;4.696;2023-02-04T11:48:19;11.90;99.90
19870;DHT22;10097;50.862;4.696;2023-02-04T11:50:57;11.90;99.90
19870;DHT22;10097;50.862;4.696;2023-02-04T11:53:27;12.00;99.90
19870;DHT22;10097;50.862;4.696;2023-02-04T11:55:54;12.00;99.90
19870;DHT22;10097;50.862;4.696;2023-02-04T11:58:20;12.00;99.90
19870;DHT22;10097;50.862;4.696;2023-02-04T12:00:46;12.20;99.90
19870;DHT22;10097;50.862;4.696;2023-02-04T12:05:46;12.70;99.90
19870;DHT22;10097;50.862;4.696;2023-02-04T12:11:10;13.00;99.90
19870;DHT22;10097;50.862;4.696;2023-02-04T12:13:51;13.00;99.90
19870;DHT22;10097;50.862;4.696;2023-02-04T12:16:17;12.90;99.90
19870;DHT22;10097;50.862;4.696;2023-02-04T12:18:43;13.00;99.90
19870;DHT22;10097;50.862;4.696;2023-02-04T12:21:09;12.90;99.90
19870;DHT22;10097;50.862;4.696;2023-02-04T12:23:35;12.90;99.90
19870;DHT22;10097;50.862;4.696;2023-02-04T12:26:01;13.00;99.90
19870;DHT22;10097;50.862;4.696;2023-02-04T12:28:26;13.10;99.90
19870;DHT22;10097;50.862;4.696;2023-02-04T12:30:53;13.20;99.90
19870;DHT22;10097;50.862;4.696;2023-02-04T12:33:19;13.30;99.90
19870;DHT22;10097;50.862;4.696;2023-02-04T12:35:47;13.30;99.90
19870;DHT22;10097;50.862;4.696;2023-02-04T12:38:12;13.40;99.90
19870;DHT22;10097;50.862;4.696;2023-02-04T12:40:38;13.50;99.90
19870;DHT22;10097;50.862;4.696;2023-02-04T12:43:04;13.60;99.90
19870;DHT22;10097;50.862;4.696;2023-02-04T12:45:30;13.50;99.90
19870;DHT22;10097;50.862;4.696;2023-02-04T12:47:56;13.60;99.90
19870;DHT22;10097;50.862;4.696;2023-02-04T12:50:22;13.60;99.90
19870;DHT22;10097;50.862;4.696;2023-02-04T12:52:53;13.60;99.90
19870;DHT22;10097;50.862;4.696;2023-02-04T12:55:19;13.60;99.90
19870;DHT22;10097;50.862;4.696;2023-02-04T12:57:45;13.50;99.90
19870;DHT22;10097;50.862;4.696;2023-02-04T13:00:12;13.50;99.90
19870;DHT22;10097;50.862;4.696;2023-02-04T13:02:39;13.40;99.90
19870;DHT22;10097;50.862;4.696;2023-02-04T13:05:07;13.50;99.90
19870;DHT22;10097;50.862;4.696;2023-02-04T13:07:33;13.60;99.90
19870;DHT22;10097;50.862;4.696;2023-02-04T13:09:59;13.70;99.90
19870;DHT22;10097;50.862;4.696;2023-02-04T13:12:25;13.60;99.90
19870;DHT22;10097;50.862;4.696;2023-02-04T13:14:51;13.50;99.90
19870;DHT22;10097;50.862;4.696;2023-02-04T13:17:17;13.70;99.90
19870;DHT22;10097;50.862;4.696;2023-02-04T13:19:42;13.70;99.90
19870;DHT22;10097;50.862;4.696;2023-02-04T13:22:08;13.70;99.90
19870;DHT22;10097;50.862;4.696;2023-02-04T13:24:34;13.70;99.90
19870;DHT22;10097;50.862;4.696;2023-02-04T13:27:00;13.80;99.90
19870;DHT22;10097;50.862;4.696;2023-02-04T13:29:25;13.80;99.90
19870;DHT22;10097;50.862;4.696;2023-02-04T13:31:51;13.60;99.90
19870;DHT22;10097;50.862;4.696;2023-02-04T13:34:17;13.50;99.90
19870;DHT22;10097;50.862;4.696;2023-02-04T13:36:43;13.40;99.90
19870;DHT22;10097;50.862;4.696;2023-02-04T13:39:09;13.40;99.90
19870;DHT22;10097;50.862;4.696;2023-02-04T13:41:35;13.60;99.90
19870;DHT22;10097;50.862;4.696;2023-02-04T13:44:02;13.80;99.90
19870;DHT22;10097;50.862;4.696;2023-02-04T13:46:27;13.90;99.90
19870;DHT22;10097;50.862;4.696;2023-02-04T13:48:53;14.10;99.90
19870;DHT22;10097;50.862;4.696;2023-02-04T13:51:19;14.00;99.90
19870;DHT22;10097;50.862;4.696;2023-02-04T13:53:44;13.70;99.90
19870;DHT22;10097;50.862;4.696;2023-02-04T13:56:10;13.80;99.90
19870;DHT22;10097;50.862;4.696;2023-02-04T13:58:36;13.90;99.90
19870;DHT22;10097;50.862;4.696;2023-02-04T14:01:01;13.90;99.90
19870;DHT22;10097;50.862;4.696;2023-02-04T14:03:28;13.90;99.90
19870;DHT22;10097;50.862;4.696;2023-02-04T14:05:55;13.90;99.90
19870;DHT22;10097;50.862;4.696;2023-02-04T14:08:21;14.00;99.90
19870;DHT22;10097;50.862;4.696;2023-02-04T14:10:48;14.00;99.90
19870;DHT22;10097;50.862;4.696;2023-02-04T14:13:13;14.10;99.90
19870;DHT22;10097;50.862;4.696;2023-02-04T14:15:39;14.30;99.90
19870;DHT22;10097;50.862;4.696;2023-02-04T14:18:08;14.30;99.90
19870;DHT22;10097;50.862;4.696;2023-02-04T14:20:37;14.50;99.90
19870;DHT22;10097;50.862;4.696;2023-02-04T14:23:04;14.30;99.90
19870;DHT22;10097;50.862;4.696;2023-02-04T14:25:30;14.30;99.90
19870;DHT22;10097;50.862;4.696;2023-02-04T14:27:56;14.20;99.90
19870;DHT22;10097;50.862;4.696;2023-02-04T14:30:23;14.00;99.90
19870;DHT22;10097;50.862;4.696;2023-02-04T14:32:50;14.00;99.90
19870;DHT22;10097;50.862;4.696;2023-02-04T14:35:15;13.70;99.90
19870;DHT22;10097;50.862;4.696;2023-02-04T14:37:41;13.40;99.90
19870;DHT22;10097;50.862;4.696;2023-02-04T14:40:08;13.50;99.90
19870;DHT22;10097;50.862;4.696;2023-02-04T14:42:34;13.60;99.90
19870;DHT22;10097;50.862;4.696;2023-02-04T14:45:01;13.60;99.90
19870;DHT22;10097;50.862;4.696;2023-02-04T14:47:31;13.70;99.90
19870;DHT22;10097;50.862;4.696;2023-02-04T14:49:56;13.90;99.90
19870;DHT22;10097;50.862;4.696;2023-02-04T14:52:22;13.90;99.90
19870;DHT22;10097;50.862;4.696;2023-02-04T14:54:48;13.70;99.90
19870;DHT22;10097;50.862;4.696;2023-02-04T14:57:14;13.50;99.90
19870;DHT22;10097;50.862;4.696;2023-02-04T14:59:39;13.50;99.90
19870;DHT22;10097;50.862;4.696;2023-02-04T15:02:05;13.50;99.90
19870;DHT22;10097;50.862;4.696;2023-02-04T15:04:31;13.50;99.90
19870;DHT22;10097;50.862;4.696;2023-02-04T15:06:58;13.50;99.90
19870;DHT22;10097;50.862;4.696;2023-02-04T15:09:24;13.30;99.90
19870;DHT22;10097;50.862;4.696;2023-02-04T15:11:50;13.20;99.90
19870;DHT22;10097;50.862;4.696;2023-02-04T15:14:16;13.10;99.90
19870;DHT22;10097;50.862;4.696;2023-02-04T15:16:42;13.00;99.90
19870;DHT22;10097;50.862;4.696;2023-02-04T15:19:09;12.90;99.90
19870;DHT22;10097;50.862;4.696;2023-02-04T15:21:35;13.00;99.90
19870;DHT22;10097;50.862;4.696;2023-02-04T15:24:00;13.10;99.90
19870;DHT22;10097;50.862;4.696;2023-02-04T15:26:26;13.10;99.90
19870;DHT22;10097;50.862;4.696;2023-02-04T15:28:52;13.10;99.90
19870;DHT22;10097;50.862;4.696;2023-02-04T15:31:20;13.00;99.90
19870;DHT22;10097;50.862;4.696;2023-02-04T15:33:46;13.00;99.90
19870;DHT22;10097;50.862;4.696;2023-02-04T15:36:11;13.00;99.90
19870;DHT22;10097;50.862;4.696;2023-02-04T15:38:37;12.90;99.90
19870;DHT22;10097;50.862;4.696;2023-02-04T15:41:03;12.90;99.90
19870;DHT22;10097;50.862;4.696;2023-02-04T15:43:29;12.80;99.90